Tropical Cyclones
[Index]
Main Index Home Page Stock Weather Photos Extreme Storms Discussion Storm News and Storm Chasing Reports Tropical Cyclones / Hurricanes / Typhoons Weather Data and Links Wild Fires / Bushfires Weather Observation Techniques Weather Picture Catalogue Tornado Pictures and Reports Stock Video Footage and DVDs for sale
Season 1960-1961 Tropical Cyclone 196106 Track Map
Season 1960-1961 Summaries: [BoM-AU] [JTWC-AU] [JTWC-SIO] [JTWC-SPAC] [JTWC-SH]
<<- Previous TC | JTWC 1960-1961 Season | Next TC ->>

click for intensity scale information  Lat/long Grid: Show Hide

 Date Labels: Show Hide

Joint Typhoon Warning Centre Cyclone Data

Name: 196106
Number: 400 / 6106

15 Dec 1960 00:00 UTC to 23 Dec 1960 18:00 UTC

    date/time    lat    long     hPa   cat  kts
1960-12-15 00    7.9   130.9                              
1960-12-15 06    8.2   130.6                              
1960-12-15 12    8.4   130.4                              
1960-12-15 18    8.7   130.2                              
1960-12-16 00    8.9   130.0                              
1960-12-16 06    9.1   129.8                              
1960-12-16 12    9.3   129.6                              
1960-12-16 18    9.5   129.3                              
1960-12-17 00    9.7   129.2                              
1960-12-17 06    9.9   129.1                              
1960-12-17 12    9.9   129.1                              
1960-12-17 18   10.0   129.0                              
1960-12-18 00   10.0   129.0                              
1960-12-18 06   10.1   128.9                              
1960-12-18 12   10.1   128.8                              
1960-12-18 18   10.2   128.8                              
1960-12-19 00   10.2   128.7                              
1960-12-19 06   10.3   128.5                              
1960-12-19 12   10.4   128.3                              
1960-12-19 18   10.6   128.1                              
1960-12-20 00   11.0   127.9                              
1960-12-20 06   11.5   127.1                              
1960-12-20 12   12.1   126.0                              
1960-12-20 18   12.6   124.8                              
1960-12-21 00   13.0   123.9                              
1960-12-21 06   13.1   123.1                              
1960-12-21 12   13.2   122.4                              
1960-12-21 18   13.6   121.6                              
1960-12-22 00   14.0   120.9                              
1960-12-22 06   14.8   120.8                              
1960-12-22 12   15.5   121.2                              
1960-12-22 18   15.8   121.9                              
1960-12-23 00   16.0   123.2                              
1960-12-23 06   16.2   124.7                              
1960-12-23 12   16.3   126.3                              
1960-12-23 18   16.7   127.8                              
Winds are 1-min average.

Tropical cyclone tracks developed by Michael Bath using data from the Joint Typhoon Warning Centre Best Tracks and Google Maps.


[Australian Severe Weather index] [Copyright Notice] [Email Contacts] [Search This Site] [Privacy Policy]
Document: tropical_cyclone_196106.htm Updated: 18 September 2016